createdAt,value
2022-07-29T00:01:44.036Z,31.38
2022-07-29T00:04:13.251Z,31.44
2022-07-29T00:06:42.910Z,31.24
2022-07-29T00:09:12.841Z,31.59
2022-07-29T00:11:41.300Z,31.33
2022-07-29T00:14:09.997Z,31.83
2022-07-29T00:16:38.979Z,31.71
2022-07-29T00:19:07.843Z,31.53
2022-07-29T00:21:36.540Z,31.75
2022-07-29T00:24:05.339Z,31.81
2022-07-29T00:26:35.143Z,31.53
2022-07-29T00:31:53.819Z,31.93
2022-07-29T00:34:39.726Z,31.71
2022-07-29T00:37:08.175Z,31.70
2022-07-29T00:39:36.595Z,31.96
2022-07-29T00:42:08.009Z,32.09
2022-07-29T00:44:40.088Z,32.32
2022-07-29T00:47:09.824Z,32.66
2022-07-29T00:49:40.108Z,32.44
2022-07-29T00:52:10.568Z,32.60
2022-07-29T00:54:44.534Z,32.39
2022-07-29T00:57:15.382Z,32.62
2022-07-29T00:59:43.843Z,32.36
2022-07-29T01:02:12.469Z,32.64
2022-07-29T01:04:41.473Z,32.95
2022-07-29T01:07:10.094Z,33.16
2022-07-29T01:09:45.714Z,32.98
2022-07-29T01:12:20.934Z,32.73
2022-07-29T01:14:50.966Z,32.87
2022-07-29T01:17:26.459Z,33.23
2022-07-29T01:20:04.558Z,32.96
2022-07-29T01:22:59.097Z,33.10
2022-07-29T01:25:57.180Z,33.32
2022-07-29T01:29:00.722Z,33.42
2022-07-29T01:31:55.246Z,33.26
2022-07-29T01:34:37.352Z,33.07
2022-07-29T01:37:17.612Z,33.28
2022-07-29T01:39:48.657Z,33.52
2022-07-29T01:42:25.805Z,33.78
2022-07-29T01:45:03.567Z,33.77
2022-07-29T01:47:41.013Z,33.82
2022-07-29T01:50:15.406Z,33.95
2022-07-29T01:52:51.825Z,33.81
2022-07-29T01:55:22.238Z,34.24
2022-07-29T01:57:52.574Z,34.27
2022-07-29T02:00:24.153Z,34.41
2022-07-29T02:02:54.913Z,34.51
2022-07-29T02:05:25.298Z,34.33
2022-07-29T02:07:56.164Z,34.51
2022-07-29T02:10:29.210Z,34.36
2022-07-29T02:13:00.437Z,34.56
2022-07-29T02:15:34.639Z,34.84
2022-07-29T02:18:09.409Z,34.85
2022-07-29T02:20:40.284Z,34.50
2022-07-29T02:23:12.508Z,34.92
2022-07-29T02:25:43.132Z,34.72
2022-07-29T02:28:12.142Z,34.81
2022-07-29T02:30:44.411Z,35.05
2022-07-29T02:33:17.801Z,35.38
2022-07-29T02:35:48.389Z,35.47
2022-07-29T02:38:36.336Z,35.36
2022-07-29T02:41:12.397Z,35.33
2022-07-29T02:43:42.978Z,35.23
2022-07-29T02:46:28.988Z,35.40
2022-07-29T02:49:05.143Z,35.57
2022-07-29T02:51:44.758Z,35.63
2022-07-29T02:54:22.336Z,35.54
2022-07-29T02:56:53.716Z,35.89
2022-07-29T02:59:28.163Z,35.64
2022-07-29T03:02:02.197Z,35.78
2022-07-29T03:04:33.223Z,35.79
2022-07-29T03:07:02.838Z,35.78
2022-07-29T03:09:32.701Z,35.89
2022-07-29T03:12:03.656Z,35.93
2022-07-29T03:14:33.462Z,36.09
2022-07-29T03:17:04.690Z,36.13
2022-07-29T03:19:35.256Z,36.04
2022-07-29T03:22:04.070Z,36.25
2022-07-29T03:24:34.874Z,36.25
2022-07-29T03:27:03.430Z,36.33
2022-07-29T03:29:33.734Z,36.53
2022-07-29T03:32:08.043Z,36.53
2022-07-29T03:34:38.278Z,36.35
2022-07-29T03:37:07.972Z,36.29
2022-07-29T03:39:42.687Z,36.71
2022-07-29T03:42:16.203Z,36.73
2022-07-29T03:44:49.640Z,36.59
2022-07-29T03:47:43.498Z,36.96
2022-07-29T03:50:17.417Z,36.79
2022-07-29T03:52:46.119Z,36.82
2022-07-29T03:55:15.666Z,37.07
2022-07-29T03:57:45.829Z,36.78
2022-07-29T04:00:16.428Z,36.87
2022-07-29T04:02:49.883Z,36.88
2022-07-29T04:05:19.766Z,36.78
2022-07-29T04:07:49.043Z,36.94
2022-07-29T04:10:30.675Z,37.01
2022-07-29T04:13:01.176Z,37.02
2022-07-29T04:15:30.937Z,36.95
2022-07-29T04:18:01.685Z,37.28
2022-07-29T04:20:30.271Z,37.03
2022-07-29T04:22:58.660Z,37.03
2022-07-29T04:25:27.052Z,37.07
2022-07-29T04:28:04.267Z,37.22
2022-07-29T04:30:34.423Z,37.01
2022-07-29T04:33:06.044Z,37.02
2022-07-29T04:35:49.994Z,37.19
2022-07-29T04:38:20.709Z,36.94
2022-07-29T04:40:49.597Z,36.75
2022-07-29T04:43:21.260Z,36.91
2022-07-29T04:45:51.851Z,36.88
2022-07-29T04:48:26.741Z,36.71
2022-07-29T04:50:57.195Z,36.98
2022-07-29T04:53:25.940Z,36.89
2022-07-29T04:55:54.339Z,36.60
2022-07-29T04:58:24.203Z,36.29
2022-07-29T05:00:53.171Z,36.11
2022-07-29T05:03:22.936Z,36.32
2022-07-29T05:05:51.319Z,36.05
2022-07-29T05:08:19.709Z,35.42
2022-07-29T05:10:48.190Z,35.24
2022-07-29T05:13:17.188Z,35.58
2022-07-29T05:15:45.782Z,35.19
2022-07-29T05:18:14.512Z,35.19
2022-07-29T05:20:44.379Z,35.38
2022-07-29T05:23:13.824Z,35.00
2022-07-29T05:25:44.306Z,34.98
2022-07-29T05:28:13.345Z,35.30
2022-07-29T05:30:41.769Z,34.64
2022-07-29T05:33:35.977Z,34.55
2022-07-29T05:36:00.780Z,35.01
2022-07-29T05:38:30.106Z,34.97
2022-07-29T05:41:00.622Z,34.82
2022-07-29T05:43:29.943Z,34.35
2022-07-29T05:45:58.975Z,34.48
2022-07-29T05:48:27.564Z,34.49
2022-07-29T05:50:56.544Z,34.27
2022-07-29T05:53:26.437Z,33.98
2022-07-29T05:55:55.724Z,34.20
2022-07-29T05:58:24.260Z,33.48
2022-07-29T06:00:52.645Z,33.61
2022-07-29T06:03:21.150Z,33.34
2022-07-29T06:05:49.475Z,32.98
2022-07-29T06:08:18.350Z,32.81
2022-07-29T06:10:48.190Z,32.55
2022-07-29T06:13:17.077Z,32.35
2022-07-29T06:15:46.562Z,32.25
2022-07-29T06:18:15.134Z,32.10
2022-07-29T06:20:43.791Z,31.81
2022-07-29T06:23:12.186Z,31.98
2022-07-29T06:25:42.557Z,31.84
2022-07-29T06:28:12.384Z,31.82
2022-07-29T06:30:40.918Z,31.60
2022-07-29T06:33:09.847Z,31.40
2022-07-29T06:35:41.943Z,31.59
2022-07-29T06:38:30.768Z,31.59
2022-07-29T06:41:04.835Z,31.44
2022-07-29T06:43:50.782Z,30.98
2022-07-29T06:46:22.439Z,30.77
2022-07-29T06:48:51.857Z,30.93
2022-07-29T06:51:22.918Z,30.86
2022-07-29T06:54:01.621Z,30.77
2022-07-29T06:56:38.668Z,30.92
2022-07-29T06:59:11.832Z,31.00
2022-07-29T07:01:41.964Z,31.13
2022-07-29T07:04:11.653Z,30.53
2022-07-29T07:06:40.361Z,30.89
2022-07-29T07:09:09.045Z,30.71
2022-07-29T07:11:37.557Z,30.69
2022-07-29T07:14:06.029Z,30.87
2022-07-29T07:16:36.338Z,30.78
2022-07-29T07:19:05.382Z,30.79
2022-07-29T07:21:36.058Z,30.90
2022-07-29T07:24:04.829Z,30.85
2022-07-29T07:26:33.328Z,30.79
2022-07-29T07:29:01.745Z,31.03
2022-07-29T07:31:30.250Z,30.77
2022-07-29T07:34:00.145Z,30.92
2022-07-29T07:36:28.676Z,30.75
2022-07-29T07:38:57.108Z,30.87
2022-07-29T07:41:25.562Z,30.56
2022-07-29T07:43:53.943Z,29.93
2022-07-29T07:46:22.328Z,29.71
2022-07-29T07:48:50.834Z,29.46
2022-07-29T07:51:20.770Z,29.80
2022-07-29T07:53:50.581Z,29.63
2022-07-29T07:56:19.072Z,29.50
2022-07-29T07:58:47.448Z,29.73
2022-07-29T08:01:18.833Z,29.72
2022-07-29T08:03:47.279Z,29.13
2022-07-29T08:06:15.679Z,29.53
2022-07-29T08:08:46.011Z,29.37
2022-07-29T08:11:14.427Z,28.91
2022-07-29T08:13:42.863Z,28.80
2022-07-29T08:16:14.336Z,28.60
2022-07-29T08:18:45.795Z,28.46
2022-07-29T08:21:15.463Z,28.44
2022-07-29T08:23:59.784Z,28.26
2022-07-29T08:26:30.308Z,28.52
2022-07-29T08:28:58.702Z,28.39
2022-07-29T08:31:27.102Z,28.05
2022-07-29T08:33:57.245Z,27.90
2022-07-29T08:36:26.006Z,27.86
2022-07-29T08:38:55.855Z,28.43
2022-07-29T08:41:24.405Z,28.32
2022-07-29T08:43:54.154Z,28.33
2022-07-29T08:46:24.072Z,27.79
2022-07-29T08:48:52.803Z,27.86
2022-07-29T08:51:23.048Z,27.39
2022-07-29T08:53:52.814Z,27.29
2022-07-29T08:56:23.403Z,27.22
2022-07-29T08:58:52.712Z,27.04
2022-07-29T09:01:35.149Z,26.36
2022-07-29T09:04:08.050Z,25.89
2022-07-29T09:06:41.485Z,26.07
2022-07-29T09:09:10.855Z,26.09
2022-07-29T09:11:40.698Z,25.90
2022-07-29T09:14:09.395Z,25.64
2022-07-29T09:16:54.371Z,25.90
2022-07-29T09:19:29.314Z,25.86
2022-07-29T09:21:59.962Z,25.38
2022-07-29T09:24:44.871Z,25.33
2022-07-29T09:27:23.806Z,25.44
2022-07-29T09:30:00.443Z,25.06
2022-07-29T09:32:30.610Z,24.84
2022-07-29T09:35:22.948Z,25.10
2022-07-29T09:37:51.853Z,24.84
2022-07-29T09:40:22.615Z,24.60
2022-07-29T09:42:53.959Z,24.53
2022-07-29T09:45:34.580Z,24.78
2022-07-29T09:48:17.715Z,24.71
2022-07-29T09:50:49.387Z,24.54
2022-07-29T09:53:33.951Z,24.08
2022-07-29T09:56:02.657Z,23.82
2022-07-29T09:58:34.690Z,24.26
2022-07-29T10:01:04.377Z,24.44
2022-07-29T10:03:32.890Z,24.45
2022-07-29T10:06:10.310Z,24.51
2022-07-29T10:08:38.913Z,24.67
2022-07-29T10:11:15.658Z,24.78
2022-07-29T10:13:48.358Z,24.85
2022-07-29T10:16:18.988Z,24.51
2022-07-29T10:18:48.398Z,24.72
2022-07-29T10:21:35.569Z,24.38
2022-07-29T10:24:06.165Z,24.47
2022-07-29T10:26:35.327Z,24.15
2022-07-29T10:29:05.560Z,24.17
2022-07-29T10:31:46.352Z,23.99
2022-07-29T10:34:25.559Z,23.82
2022-07-29T10:37:03.303Z,23.78
2022-07-29T10:39:52.768Z,24.12
2022-07-29T10:42:29.521Z,23.42
2022-07-29T10:45:07.064Z,23.43
2022-07-29T10:47:35.736Z,23.75
2022-07-29T10:50:11.709Z,23.42
2022-07-29T10:52:58.625Z,23.38
2022-07-29T10:55:41.939Z,22.53
2022-07-29T10:58:18.091Z,22.91
2022-07-29T11:00:50.638Z,22.81
2022-07-29T11:03:50.719Z,22.98
2022-07-29T11:06:26.179Z,22.82
2022-07-29T11:09:25.932Z,22.51
2022-07-29T11:12:04.217Z,22.35
2022-07-29T11:15:00.243Z,22.26
2022-07-29T11:17:46.972Z,21.76
2022-07-29T11:20:38.745Z,21.88
2022-07-29T11:23:33.957Z,21.09
2022-07-29T11:26:24.821Z,20.73
2022-07-29T11:29:01.970Z,20.31
2022-07-29T11:31:43.865Z,20.42
2022-07-29T11:34:28.224Z,20.15
2022-07-29T11:37:23.257Z,19.85
2022-07-29T11:40:20.266Z,20.25
2022-07-29T11:42:53.662Z,19.86
2022-07-29T11:45:43.639Z,19.81
2022-07-29T11:48:28.640Z,19.38
2022-07-29T11:51:00.599Z,18.95
2022-07-29T11:53:33.199Z,18.53
2022-07-29T11:56:03.579Z,18.16
2022-07-29T11:58:33.178Z,18.19
2022-07-29T12:01:04.812Z,17.85
2022-07-29T12:04:06.838Z,16.87
2022-07-29T12:06:37.160Z,15.98
2022-07-29T12:09:14.598Z,16.11
2022-07-29T12:11:44.982Z,15.83
2022-07-29T12:14:29.236Z,15.88
2022-07-29T12:16:57.970Z,15.81
2022-07-29T12:19:27.261Z,15.64
2022-07-29T12:21:59.851Z,15.46
2022-07-29T12:24:45.728Z,15.24
2022-07-29T12:27:19.052Z,14.68
2022-07-29T12:29:58.784Z,14.54
2022-07-29T12:32:34.929Z,14.71
2022-07-29T12:35:06.673Z,14.39
2022-07-29T12:37:41.123Z,14.54
2022-07-29T12:40:12.356Z,14.94
2022-07-29T12:42:41.789Z,15.44
2022-07-29T12:45:10.647Z,15.24
2022-07-29T12:47:54.284Z,16.15
2022-07-29T12:50:26.302Z,16.08
2022-07-29T12:52:56.442Z,16.46
2022-07-29T12:55:46.166Z,17.01
2022-07-29T12:58:14.802Z,17.55
2022-07-29T13:00:43.274Z,17.42
2022-07-29T13:03:11.665Z,18.32
2022-07-29T13:05:49.189Z,18.16
2022-07-29T13:08:22.189Z,18.91
2022-07-29T13:10:51.339Z,19.57
2022-07-29T13:13:19.721Z,19.77
2022-07-29T13:15:49.287Z,20.12
2022-07-29T13:18:31.430Z,20.31
2022-07-29T13:21:12.201Z,21.29
2022-07-29T13:23:42.328Z,21.63
2022-07-29T13:26:12.445Z,22.49
2022-07-29T13:28:41.015Z,22.53
2022-07-29T13:31:12.894Z,23.27
2022-07-29T13:33:41.545Z,23.35
2022-07-29T13:36:10.139Z,24.36
2022-07-29T13:38:38.619Z,24.62
2022-07-29T13:41:08.502Z,25.51
2022-07-29T13:43:36.976Z,26.16
2022-07-29T13:46:05.451Z,28.40
2022-07-29T13:48:33.907Z,28.63
2022-07-29T13:51:02.316Z,29.28
2022-07-29T13:53:30.674Z,31.26
2022-07-29T13:55:59.586Z,32.06
2022-07-29T13:58:29.548Z,33.81
2022-07-29T14:00:59.040Z,34.39
2022-07-29T14:03:27.549Z,34.81
2022-07-29T14:05:57.292Z,35.61
2022-07-29T14:08:25.664Z,36.54
2022-07-29T14:10:54.046Z,36.97
2022-07-29T14:13:25.030Z,38.70
2022-07-29T14:15:56.120Z,38.85
2022-07-29T14:18:24.519Z,40.20
2022-07-29T14:20:53.090Z,42.19
2022-07-29T14:23:21.696Z,42.43
2022-07-29T14:25:50.338Z,44.35
2022-07-29T14:28:18.805Z,45.18
2022-07-29T14:30:47.344Z,45.52
2022-07-29T14:33:17.169Z,46.23
2022-07-29T14:35:46.431Z,46.96
2022-07-29T14:38:14.793Z,47.99
2022-07-29T14:40:43.280Z,48.67
2022-07-29T14:43:11.725Z,49.12
2022-07-29T14:45:40.148Z,49.53
2022-07-29T14:48:08.888Z,49.78
2022-07-29T14:50:38.827Z,50.15
2022-07-29T14:53:07.414Z,50.75
2022-07-29T14:55:36.460Z,50.88
2022-07-29T14:58:10.026Z,51.26
2022-07-29T15:00:41.895Z,51.75
2022-07-29T15:03:11.571Z,52.52
2022-07-29T15:05:41.471Z,53.47
2022-07-29T15:08:10.245Z,53.75
2022-07-29T15:10:38.808Z,53.38
2022-07-29T15:13:07.346Z,53.75
2022-07-29T15:15:35.763Z,54.23
2022-07-29T15:18:04.233Z,53.73
2022-07-29T15:20:32.829Z,53.72
2022-07-29T15:23:02.596Z,53.68
2022-07-29T15:25:31.058Z,54.01
2022-07-29T15:28:03.239Z,53.66
2022-07-29T15:30:34.463Z,53.94
2022-07-29T15:33:04.934Z,54.14
2022-07-29T15:35:40.571Z,54.17
2022-07-29T15:38:10.620Z,53.54
2022-07-29T15:40:42.181Z,54.02
2022-07-29T15:43:10.602Z,54.15
2022-07-29T15:45:40.459Z,53.77
2022-07-29T15:48:14.656Z,53.52
2022-07-29T15:50:47.199Z,53.58
2022-07-29T15:53:17.226Z,53.72
2022-07-29T15:55:46.046Z,53.49
2022-07-29T15:58:14.574Z,53.29
2022-07-29T16:00:43.016Z,52.75
2022-07-29T16:03:11.541Z,52.31
2022-07-29T16:05:39.958Z,51.59
2022-07-29T16:08:08.399Z,51.16
2022-07-29T16:10:38.188Z,50.64
2022-07-29T16:13:06.602Z,50.30
2022-07-29T16:15:35.428Z,50.16
2022-07-29T16:18:04.028Z,49.46
2022-07-29T16:20:32.471Z,49.11
2022-07-29T16:23:01.766Z,48.78
2022-07-29T16:25:58.475Z,48.08
2022-07-29T16:28:20.162Z,47.80
2022-07-29T16:30:48.465Z,47.19
2022-07-29T16:33:16.826Z,46.93
2022-07-29T16:35:45.289Z,46.74
2022-07-29T16:38:13.716Z,46.58
2022-07-29T16:40:42.105Z,46.32
2022-07-29T16:43:10.993Z,46.27
2022-07-29T16:45:45.899Z,45.53
2022-07-29T16:48:15.424Z,45.01
2022-07-29T16:50:46.889Z,44.54
2022-07-29T16:53:15.419Z,44.43
2022-07-29T16:55:43.985Z,44.12
2022-07-29T16:58:13.871Z,43.94
2022-07-29T17:00:43.805Z,43.94
2022-07-29T17:03:13.568Z,43.83
2022-07-29T17:05:52.691Z,43.41
2022-07-29T17:08:23.024Z,43.53
2022-07-29T17:10:51.662Z,43.53
2022-07-29T17:13:20.189Z,43.79
2022-07-29T17:15:50.029Z,43.77
2022-07-29T17:18:18.493Z,43.99
2022-07-29T17:20:47.036Z,44.08
2022-07-29T17:23:15.458Z,44.14
2022-07-29T17:25:43.851Z,43.79
2022-07-29T17:28:12.239Z,43.87
2022-07-29T17:30:40.797Z,43.71
2022-07-29T17:33:10.578Z,43.86
2022-07-29T17:35:56.495Z,43.74
2022-07-29T17:38:24.915Z,43.99
2022-07-29T17:40:53.312Z,43.90
2022-07-29T17:43:21.676Z,43.99
2022-07-29T17:45:50.938Z,44.09
2022-07-29T17:48:21.518Z,44.15
2022-07-29T17:50:53.023Z,44.29
2022-07-29T17:53:21.393Z,44.48
2022-07-29T17:55:49.982Z,44.67
2022-07-29T17:58:19.029Z,44.95
2022-07-29T18:00:47.704Z,44.82
2022-07-29T18:03:16.467Z,45.40
2022-07-29T18:05:46.342Z,45.10
2022-07-29T18:08:14.920Z,45.33
2022-07-29T18:10:43.466Z,45.43
2022-07-29T18:13:12.726Z,45.45
2022-07-29T18:15:42.458Z,45.98
2022-07-29T18:18:10.876Z,45.77
2022-07-29T18:20:39.295Z,45.90
2022-07-29T18:23:09.043Z,46.10
2022-07-29T18:25:41.281Z,46.40
2022-07-29T18:28:09.938Z,46.52
2022-07-29T18:30:38.640Z,46.12
2022-07-29T18:33:24.290Z,46.04
2022-07-29T18:36:11.167Z,46.69
2022-07-29T18:38:43.074Z,46.39
2022-07-29T18:41:12.501Z,46.84
2022-07-29T18:43:41.293Z,46.36
2022-07-29T18:46:10.120Z,46.59
2022-07-29T18:48:39.381Z,46.77
2022-07-29T18:51:09.862Z,46.79
2022-07-29T18:53:38.572Z,47.37
2022-07-29T18:56:08.499Z,47.56
2022-07-29T18:58:38.375Z,47.00
2022-07-29T19:01:07.020Z,47.24
2022-07-29T19:03:35.580Z,47.78
2022-07-29T19:06:04.013Z,47.37
2022-07-29T19:08:33.360Z,47.64
2022-07-29T19:11:01.836Z,47.54
2022-07-29T19:13:32.708Z,48.13
2022-07-29T19:16:01.115Z,47.71
2022-07-29T19:18:29.612Z,48.18
2022-07-29T19:20:58.018Z,48.22
2022-07-29T19:23:26.398Z,48.33
2022-07-29T19:25:54.817Z,47.74
2022-07-29T19:28:23.369Z,48.28
2022-07-29T19:30:53.578Z,48.07
2022-07-29T19:33:22.154Z,48.69
2022-07-29T19:35:54.929Z,49.23
2022-07-29T19:38:24.100Z,48.93
2022-07-29T19:40:52.541Z,49.78
2022-07-29T19:43:51.895Z,49.38
2022-07-29T19:46:11.201Z,49.44
2022-07-29T19:48:39.680Z,49.66
2022-07-29T19:51:08.057Z,49.70
2022-07-29T19:53:36.470Z,49.98
2022-07-29T19:56:05.559Z,50.24
2022-07-29T19:58:37.370Z,50.09
2022-07-29T20:01:10.402Z,49.95
2022-07-29T20:03:41.112Z,50.43
2022-07-29T20:06:09.598Z,50.08
2022-07-29T20:08:38.136Z,50.58
2022-07-29T20:11:06.791Z,50.62
2022-07-29T20:13:35.386Z,50.53
2022-07-29T20:16:08.273Z,50.76
2022-07-29T20:18:36.893Z,50.91
2022-07-29T20:21:06.774Z,50.44
2022-07-29T20:23:35.143Z,50.75
2022-07-29T20:26:08.729Z,50.89
2022-07-29T20:28:40.296Z,50.93
2022-07-29T20:31:09.124Z,51.04
2022-07-29T20:33:37.704Z,51.42
2022-07-29T20:36:08.231Z,51.10
2022-07-29T20:38:37.130Z,51.65
2022-07-29T20:41:05.755Z,51.31
2022-07-29T20:43:37.448Z,51.44
2022-07-29T20:46:07.827Z,51.50
2022-07-29T20:48:36.257Z,51.46
2022-07-29T20:51:04.648Z,51.84
2022-07-29T20:53:34.542Z,51.91
2022-07-29T20:56:02.911Z,51.72
2022-07-29T20:58:32.707Z,52.05
2022-07-29T21:01:01.165Z,52.45
2022-07-29T21:03:29.608Z,51.98
2022-07-29T21:05:58.295Z,52.04
2022-07-29T21:08:26.925Z,51.81
2022-07-29T21:10:57.532Z,51.91
2022-07-29T21:13:25.932Z,51.67
2022-07-29T21:15:58.654Z,52.02
2022-07-29T21:18:32.692Z,52.03
2022-07-29T21:21:02.307Z,51.62
2022-07-29T21:23:31.161Z,51.57
2022-07-29T21:26:01.011Z,51.80
2022-07-29T21:28:29.563Z,51.27
2022-07-29T21:31:00.642Z,51.73
2022-07-29T21:33:33.301Z,51.64
2022-07-29T21:38:51.118Z,51.38
2022-07-29T21:41:21.938Z,51.46
2022-07-29T21:43:50.344Z,51.28
2022-07-29T21:46:21.450Z,51.65
2022-07-29T21:48:53.021Z,51.45
2022-07-29T21:51:21.440Z,51.57
2022-07-29T21:53:50.625Z,51.60
2022-07-29T21:56:24.559Z,51.72
2022-07-29T21:58:56.385Z,51.41
2022-07-29T22:01:25.601Z,51.64
2022-07-29T22:03:54.088Z,51.38
2022-07-29T22:06:22.702Z,51.27
2022-07-29T22:08:51.850Z,51.53
2022-07-29T22:11:20.545Z,51.48
2022-07-29T22:13:50.408Z,51.86
2022-07-29T22:16:19.082Z,51.62
2022-07-29T22:18:48.369Z,51.75
2022-07-29T22:21:17.204Z,51.35
2022-07-29T22:23:45.563Z,51.37
2022-07-29T22:26:13.968Z,51.28
2022-07-29T22:28:42.374Z,51.81
2022-07-29T22:31:12.375Z,51.81
2022-07-29T22:33:40.871Z,51.62
2022-07-29T22:36:09.664Z,51.84
2022-07-29T22:38:38.148Z,51.90
2022-07-29T22:41:06.540Z,51.65
2022-07-29T22:43:35.181Z,51.68
2022-07-29T22:46:03.594Z,51.51
2022-07-29T22:48:33.457Z,51.75
2022-07-29T22:51:01.820Z,51.66
2022-07-29T22:53:30.239Z,51.26
2022-07-29T22:55:58.644Z,51.20
2022-07-29T22:58:27.115Z,51.28
2022-07-29T23:00:55.568Z,51.64
2022-07-29T23:03:24.239Z,51.20
2022-07-29T23:05:54.085Z,51.52
2022-07-29T23:08:22.547Z,51.53
2022-07-29T23:10:50.954Z,51.55
2022-07-29T23:13:19.418Z,51.48
2022-07-29T23:15:48.047Z,51.61
2022-07-29T23:18:16.451Z,51.22
2022-07-29T23:20:45.809Z,51.39
2022-07-29T23:23:15.608Z,51.26
2022-07-29T23:25:43.969Z,51.24
2022-07-29T23:28:13.244Z,51.26
2022-07-29T23:30:42.265Z,51.21
2022-07-29T23:33:10.724Z,51.33
2022-07-29T23:35:39.093Z,50.88
2022-07-29T23:38:07.701Z,50.97
2022-07-29T23:40:37.563Z,50.75
2022-07-29T23:43:08.563Z,51.20
2022-07-29T23:45:42.547Z,50.83
2022-07-29T23:48:14.639Z,50.90
2022-07-29T23:50:43.390Z,50.96
2022-07-29T23:53:12.201Z,50.76
2022-07-29T23:55:42.025Z,50.63
2022-07-29T23:58:10.422Z,50.71
